CheckWX is a tool to help pilots better visualize weather data.  It is not intended as a substitute for an official pre-flight weather briefing.

22:30:34 UTC

KADF TAF
Dexter B Florence Memorial Field Airport
Arkadelphia, Arkansas, USA
KADF 191737Z 1918/2018 19004KT P6SM SCT040 BKN250 FM200000 10003KT P6SM OVC080 FM200800 00000KT 5SM BR OVC035 FM201500 12005KT P6SM OVC050

Oct-19@
18:00 UTC

Oct-19 @ 18:00 UTC

Oct-20@
00:00 UTC

Oct-20 @ 00:00 UTC

KADF 191737Z 1918/2018 19004KT P6SM SCT040 BKN250
Wind
  • 190° at 4 KTS
Cloud Levels
  • Scattered at 4,000' AGL
  • Broken at 25,000' AGL

Oct-20@
00:00 UTC

Oct-20 @ 00:00 UTC

Oct-20@
08:00 UTC

Oct-20 @ 08:00 UTC

FM200000 10003KT P6SM OVC080

From

From Standard forecast or significant change

Wind
  • 100° at 3 KTS
Cloud Levels
  • Overcast at 8,000' AGL

Oct-20@
08:00 UTC

Oct-20 @ 08:00 UTC

Oct-20@
15:00 UTC

Oct-20 @ 15:00 UTC

FM200800 00000KT 5SM BR OVC035

From

From Standard forecast or significant change

Conditions
Mist
Cloud Levels
  • Overcast at 3,500' AGL

Oct-20@
15:00 UTC

Oct-20 @ 15:00 UTC

Oct-20@
18:00 UTC

Oct-20 @ 18:00 UTC

FM201500 12005KT P6SM OVC050

From

From Standard forecast or significant change

Wind
  • 120° at 5 KTS
Cloud Levels
  • Overcast at 5,000' AGL